sensor_id;sensor_type;location;lat;lon;timestamp;temperature;humidity
41547;DHT22;27271;45.412;10.852;2023-09-30T04:02:24;14.30;1.00
41547;DHT22;27271;45.412;10.852;2023-09-30T04:05:47;14.40;1.00
41547;DHT22;27271;45.412;10.852;2023-09-30T04:09:13;14.30;1.00
41547;DHT22;27271;45.412;10.852;2023-09-30T04:12:35;14.30;1.00
41547;DHT22;27271;45.412;10.852;2023-09-30T04:15:59;14.20;1.00
41547;DHT22;27271;45.412;10.852;2023-09-30T04:19:21;14.10;1.00
41547;DHT22;27271;45.412;10.852;2023-09-30T04:22:45;14.10;1.00
41547;DHT22;27271;45.412;10.852;2023-09-30T04:26:11;14.20;1.00
41547;DHT22;27271;45.412;10.852;2023-09-30T04:29:33;14.20;1.00
41547;DHT22;27271;45.412;10.852;2023-09-30T04:32:56;14.10;1.00
41547;DHT22;27271;45.412;10.852;2023-09-30T04:36:19;14.10;22.50
41547;DHT22;27271;45.412;10.852;2023-09-30T04:39:42;14.20;27.40
41547;DHT22;27271;45.412;10.852;2023-09-30T04:43:04;14.30;1.00
41547;DHT22;27271;45.412;10.852;2023-09-30T04:46:27;14.30;1.00
41547;DHT22;27271;45.412;10.852;2023-09-30T04:49:49;14.20;1.00
41547;DHT22;27271;45.412;10.852;2023-09-30T04:53:13;14.20;1.00
41547;DHT22;27271;45.412;10.852;2023-09-30T04:56:35;14.10;1.00
41547;DHT22;27271;45.412;10.852;2023-09-30T04:59:58;14.00;24.70
41547;DHT22;27271;45.412;10.852;2023-09-30T05:03:20;14.00;56.40
41547;DHT22;27271;45.412;10.852;2023-09-30T05:06:42;13.90;57.50
41547;DHT22;27271;45.412;10.852;2023-09-30T05:10:04;13.90;52.80
41547;DHT22;27271;45.412;10.852;2023-09-30T05:13:33;13.80;62.00
41547;DHT22;27271;45.412;10.852;2023-09-30T05:16:58;13.80;63.70
41547;DHT22;27271;45.412;10.852;2023-09-30T05:20:21;13.70;94.10
41547;DHT22;27271;45.412;10.852;2023-09-30T05:23:44;13.60;99.90
41547;DHT22;27271;45.412;10.852;2023-09-30T05:27:06;13.60;99.90
41547;DHT22;27271;45.412;10.852;2023-09-30T05:30:28;13.60;99.90
41547;DHT22;27271;45.412;10.852;2023-09-30T05:33:51;13.60;99.90
41547;DHT22;27271;45.412;10.852;2023-09-30T05:37:14;13.70;99.90
41547;DHT22;27271;45.412;10.852;2023-09-30T05:40:38;13.80;99.90
41547;DHT22;27271;45.412;10.852;2023-09-30T05:44:00;13.90;99.90
41547;DHT22;27271;45.412;10.852;2023-09-30T05:47:22;14.00;99.90
41547;DHT22;27271;45.412;10.852;2023-09-30T05:50:45;14.10;99.90
41547;DHT22;27271;45.412;10.852;2023-09-30T05:54:07;14.30;99.90
41547;DHT22;27271;45.412;10.852;2023-09-30T05:57:33;14.40;99.90
41547;DHT22;27271;45.412;10.852;2023-09-30T06:00:57;14.60;93.50
41547;DHT22;27271;45.412;10.852;2023-09-30T06:04:19;14.90;31.90
41547;DHT22;27271;45.412;10.852;2023-09-30T06:07:42;15.10;1.00
41547;DHT22;27271;45.412;10.852;2023-09-30T06:11:07;15.40;1.00
41547;DHT22;27271;45.412;10.852;2023-09-30T06:14:29;16.30;99.90
41547;DHT22;27271;45.412;10.852;2023-09-30T06:17:53;18.00;99.90
41547;DHT22;27271;45.412;10.852;2023-09-30T06:21:16;19.80;1.00
41547;DHT22;27271;45.412;10.852;2023-09-30T06:24:43;21.20;1.00
41547;DHT22;27271;45.412;10.852;2023-09-30T06:28:08;22.50;1.00
41547;DHT22;27271;45.412;10.852;2023-09-30T06:31:31;23.90;99.90
41547;DHT22;27271;45.412;10.852;2023-09-30T06:34:54;24.60;99.90
41547;DHT22;27271;45.412;10.852;2023-09-30T06:38:18;25.60;99.90
41547;DHT22;27271;45.412;10.852;2023-09-30T06:41:40;26.90;99.90
41547;DHT22;27271;45.412;10.852;2023-09-30T06:45:05;27.40;99.90
41547;DHT22;27271;45.412;10.852;2023-09-30T06:48:28;27.70;99.90
41547;DHT22;27271;45.412;10.852;2023-09-30T06:51:50;28.00;99.90
41547;DHT22;27271;45.412;10.852;2023-09-30T06:55:12;27.80;99.90
41547;DHT22;27271;45.412;10.852;2023-09-30T06:58:35;28.90;99.90
41547;DHT22;27271;45.412;10.852;2023-09-30T07:01:58;28.60;99.90
41547;DHT22;27271;45.412;10.852;2023-09-30T07:05:20;28.70;99.90
41547;DHT22;27271;45.412;10.852;2023-09-30T07:08:42;28.40;99.90
41547;DHT22;27271;45.412;10.852;2023-09-30T07:12:05;29.00;99.90
41547;DHT22;27271;45.412;10.852;2023-09-30T07:15:28;29.90;99.90
41547;DHT22;27271;45.412;10.852;2023-09-30T07:18:52;30.10;99.90
41547;DHT22;27271;45.412;10.852;2023-09-30T07:22:18;30.40;99.90
41547;DHT22;27271;45.412;10.852;2023-09-30T07:25:54;30.80;99.90
41547;DHT22;27271;45.412;10.852;2023-09-30T07:29:16;31.20;99.90
41547;DHT22;27271;45.412;10.852;2023-09-30T07:32:38;31.80;99.90
41547;DHT22;27271;45.412;10.852;2023-09-30T07:36:01;32.00;99.90
41547;DHT22;27271;45.412;10.852;2023-09-30T07:39:23;32.10;99.90
41547;DHT22;27271;45.412;10.852;2023-09-30T07:42:46;31.90;99.90
41547;DHT22;27271;45.412;10.852;2023-09-30T07:46:08;31.80;99.90
41547;DHT22;27271;45.412;10.852;2023-09-30T07:49:30;31.50;99.90
41547;DHT22;27271;45.412;10.852;2023-09-30T07:52:58;32.10;99.90
41547;DHT22;27271;45.412;10.852;2023-09-30T07:56:24;32.50;99.90
41547;DHT22;27271;45.412;10.852;2023-09-30T07:59:47;32.00;99.90
41547;DHT22;27271;45.412;10.852;2023-09-30T08:03:11;31.10;99.90
41547;DHT22;27271;45.412;10.852;2023-09-30T08:06:33;30.60;99.90
41547;DHT22;27271;45.412;10.852;2023-09-30T08:10:20;30.70;99.90
41547;DHT22;27271;45.412;10.852;2023-09-30T08:13:43;31.50;99.90
41547;DHT22;27271;45.412;10.852;2023-09-30T08:17:06;32.60;99.90
41547;DHT22;27271;45.412;10.852;2023-09-30T08:20:29;32.80;99.90
41547;DHT22;27271;45.412;10.852;2023-09-30T08:24:08;33.50;99.90
41547;DHT22;27271;45.412;10.852;2023-09-30T08:27:33;34.00;99.90
41547;DHT22;27271;45.412;10.852;2023-09-30T08:31:02;33.70;99.90
41547;DHT22;27271;45.412;10.852;2023-09-30T08:34:24;34.10;99.90
41547;DHT22;27271;45.412;10.852;2023-09-30T08:37:47;34.80;99.90
41547;DHT22;27271;45.412;10.852;2023-09-30T08:41:09;34.90;99.90
41547;DHT22;27271;45.412;10.852;2023-09-30T08:44:36;34.30;99.90
41547;DHT22;27271;45.412;10.852;2023-09-30T08:47:59;34.10;99.90
41547;DHT22;27271;45.412;10.852;2023-09-30T08:51:31;34.10;99.90
41547;DHT22;27271;45.412;10.852;2023-09-30T08:54:57;33.80;99.90
41547;DHT22;27271;45.412;10.852;2023-09-30T08:58:20;34.00;99.90
41547;DHT22;27271;45.412;10.852;2023-09-30T09:01:47;34.50;99.90
41547;DHT22;27271;45.412;10.852;2023-09-30T09:05:10;35.60;99.90
41547;DHT22;27271;45.412;10.852;2023-09-30T09:08:40;34.80;99.90
41547;DHT22;27271;45.412;10.852;2023-09-30T09:12:19;34.20;99.90
41547;DHT22;27271;45.412;10.852;2023-09-30T09:15:41;34.60;99.90
41547;DHT22;27271;45.412;10.852;2023-09-30T09:19:17;34.70;99.90
41547;DHT22;27271;45.412;10.852;2023-09-30T09:22:46;34.60;99.90
41547;DHT22;27271;45.412;10.852;2023-09-30T09:26:13;34.60;99.90
41547;DHT22;27271;45.412;10.852;2023-09-30T09:29:45;34.60;99.90
41547;DHT22;27271;45.412;10.852;2023-09-30T09:33:07;34.00;99.90
41547;DHT22;27271;45.412;10.852;2023-09-30T09:40:02;33.80;99.90
41547;DHT22;27271;45.412;10.852;2023-09-30T09:43:26;33.90;99.90
41547;DHT22;27271;45.412;10.852;2023-09-30T09:46:50;34.00;99.90
41547;DHT22;27271;45.412;10.852;2023-09-30T09:50:13;34.20;99.90
41547;DHT22;27271;45.412;10.852;2023-09-30T09:53:36;33.50;99.90
41547;DHT22;27271;45.412;10.852;2023-09-30T09:57:03;33.60;99.90
41547;DHT22;27271;45.412;10.852;2023-09-30T10:00:27;33.70;99.90
41547;DHT22;27271;45.412;10.852;2023-09-30T10:03:55;34.20;99.90
41547;DHT22;27271;45.412;10.852;2023-09-30T10:07:20;35.20;99.90
41547;DHT22;27271;45.412;10.852;2023-09-30T10:10:47;34.90;99.90
41547;DHT22;27271;45.412;10.852;2023-09-30T10:14:33;34.40;99.90
41547;DHT22;27271;45.412;10.852;2023-09-30T10:18:06;33.20;99.90
41547;DHT22;27271;45.412;10.852;2023-09-30T10:21:35;33.00;99.90
41547;DHT22;27271;45.412;10.852;2023-09-30T10:24:58;32.80;99.90
41547;DHT22;27271;45.412;10.852;2023-09-30T10:28:38;32.50;99.90
41547;DHT22;27271;45.412;10.852;2023-09-30T10:32:08;32.20;99.90
41547;DHT22;27271;45.412;10.852;2023-09-30T10:38:57;32.80;99.90
41547;DHT22;27271;45.412;10.852;2023-09-30T10:42:49;32.70;99.90
41547;DHT22;27271;45.412;10.852;2023-09-30T10:49:54;32.50;99.90
41547;DHT22;27271;45.412;10.852;2023-09-30T10:53:21;32.00;99.90
41547;DHT22;27271;45.412;10.852;2023-09-30T10:56:51;31.70;99.90
41547;DHT22;27271;45.412;10.852;2023-09-30T11:00:21;31.20;99.90
41547;DHT22;27271;45.412;10.852;2023-09-30T11:03:50;31.50;99.90
41547;DHT22;27271;45.412;10.852;2023-09-30T11:07:23;31.80;99.90
41547;DHT22;27271;45.412;10.852;2023-09-30T11:10:51;32.50;99.90
41547;DHT22;27271;45.412;10.852;2023-09-30T11:14:26;32.60;99.90
41547;DHT22;27271;45.412;10.852;2023-09-30T11:17:53;32.70;99.90
41547;DHT22;27271;45.412;10.852;2023-09-30T11:21:21;32.80;99.90
41547;DHT22;27271;45.412;10.852;2023-09-30T11:24:44;33.00;99.90
41547;DHT22;27271;45.412;10.852;2023-09-30T11:28:19;32.90;99.90
41547;DHT22;27271;45.412;10.852;2023-09-30T11:31:58;32.30;99.90
41547;DHT22;27271;45.412;10.852;2023-09-30T11:35:26;32.30;99.90
41547;DHT22;27271;45.412;10.852;2023-09-30T11:38:51;32.30;99.90
41547;DHT22;27271;45.412;10.852;2023-09-30T11:42:18;32.10;99.90
41547;DHT22;27271;45.412;10.852;2023-09-30T11:45:42;32.20;99.90
41547;DHT22;27271;45.412;10.852;2023-09-30T11:49:07;31.80;99.90
41547;DHT22;27271;45.412;10.852;2023-09-30T11:52:34;31.80;99.90
41547;DHT22;27271;45.412;10.852;2023-09-30T11:55:59;31.60;99.90
41547;DHT22;27271;45.412;10.852;2023-09-30T11:59:21;31.20;99.90
41547;DHT22;27271;45.412;10.852;2023-09-30T12:02:48;31.30;99.90
41547;DHT22;27271;45.412;10.852;2023-09-30T12:06:12;31.10;99.90
41547;DHT22;27271;45.412;10.852;2023-09-30T12:09:36;31.20;99.90
41547;DHT22;27271;45.412;10.852;2023-09-30T12:13:05;31.80;99.90
41547;DHT22;27271;45.412;10.852;2023-09-30T12:16:32;31.40;99.90
41547;DHT22;27271;45.412;10.852;2023-09-30T12:19:56;31.40;99.90
41547;DHT22;27271;45.412;10.852;2023-09-30T12:23:20;31.00;99.90
41547;DHT22;27271;45.412;10.852;2023-09-30T12:26:51;31.00;99.90
41547;DHT22;27271;45.412;10.852;2023-09-30T12:30:22;30.90;99.90
41547;DHT22;27271;45.412;10.852;2023-09-30T12:33:45;31.10;99.90
41547;DHT22;27271;45.412;10.852;2023-09-30T12:37:13;31.10;99.90
41547;DHT22;27271;45.412;10.852;2023-09-30T12:40:42;31.00;99.90
41547;DHT22;27271;45.412;10.852;2023-09-30T12:44:15;31.00;99.90
41547;DHT22;27271;45.412;10.852;2023-09-30T12:47:40;30.80;99.90
41547;DHT22;27271;45.412;10.852;2023-09-30T12:51:03;30.80;99.90
41547;DHT22;27271;45.412;10.852;2023-09-30T12:54:28;30.60;99.90
41547;DHT22;27271;45.412;10.852;2023-09-30T12:57:52;30.60;99.90
41547;DHT22;27271;45.412;10.852;2023-09-30T13:01:18;30.50;99.90
41547;DHT22;27271;45.412;10.852;2023-09-30T13:04:44;30.20;99.90
41547;DHT22;27271;45.412;10.852;2023-09-30T13:08:36;29.90;99.90
41547;DHT22;27271;45.412;10.852;2023-09-30T13:12:19;30.00;99.90
41547;DHT22;27271;45.412;10.852;2023-09-30T13:15:46;30.10;99.90
41547;DHT22;27271;45.412;10.852;2023-09-30T13:19:14;30.20;99.90
41547;DHT22;27271;45.412;10.852;2023-09-30T13:22:44;30.40;99.90
41547;DHT22;27271;45.412;10.852;2023-09-30T13:26:15;30.50;99.90
41547;DHT22;27271;45.412;10.852;2023-09-30T13:29:46;30.80;99.90
41547;DHT22;27271;45.412;10.852;2023-09-30T13:33:09;31.00;99.90
41547;DHT22;27271;45.412;10.852;2023-09-30T13:36:35;30.90;99.90
41547;DHT22;27271;45.412;10.852;2023-09-30T13:40:05;31.00;99.90
41547;DHT22;27271;45.412;10.852;2023-09-30T13:43:30;30.70;99.90
41547;DHT22;27271;45.412;10.852;2023-09-30T13:46:53;30.10;99.90
41547;DHT22;27271;45.412;10.852;2023-09-30T13:50:19;30.20;99.90
41547;DHT22;27271;45.412;10.852;2023-09-30T13:54:43;30.50;99.90
41547;DHT22;27271;45.412;10.852;2023-09-30T13:59:23;30.60;99.90
41547;DHT22;27271;45.412;10.852;2023-09-30T14:03:11;30.60;99.90
41547;DHT22;27271;45.412;10.852;2023-09-30T14:06:35;30.60;99.90
41547;DHT22;27271;45.412;10.852;2023-09-30T14:09:59;30.60;99.90
41547;DHT22;27271;45.412;10.852;2023-09-30T14:13:23;30.20;99.90
41547;DHT22;27271;45.412;10.852;2023-09-30T14:16:47;29.90;99.90
41547;DHT22;27271;45.412;10.852;2023-09-30T14:20:11;30.00;99.90
41547;DHT22;27271;45.412;10.852;2023-09-30T14:23:35;30.20;99.90
41547;DHT22;27271;45.412;10.852;2023-09-30T14:27:02;30.30;99.90
41547;DHT22;27271;45.412;10.852;2023-09-30T14:30:28;30.10;99.90
41547;DHT22;27271;45.412;10.852;2023-09-30T14:33:51;29.90;99.90
41547;DHT22;27271;45.412;10.852;2023-09-30T14:37:17;29.60;99.90
41547;DHT22;27271;45.412;10.852;2023-09-30T14:40:41;29.50;99.90
41547;DHT22;27271;45.412;10.852;2023-09-30T14:44:07;29.40;99.90
41547;DHT22;27271;45.412;10.852;2023-09-30T14:47:36;29.00;99.90
41547;DHT22;27271;45.412;10.852;2023-09-30T14:50:59;28.60;99.90
41547;DHT22;27271;45.412;10.852;2023-09-30T14:54:25;28.30;99.90
41547;DHT22;27271;45.412;10.852;2023-09-30T14:57:48;28.10;99.90
41547;DHT22;27271;45.412;10.852;2023-09-30T15:01:12;28.00;99.90
41547;DHT22;27271;45.412;10.852;2023-09-30T15:04:41;27.70;99.90
41547;DHT22;27271;45.412;10.852;2023-09-30T15:08:04;27.40;99.90
41547;DHT22;27271;45.412;10.852;2023-09-30T15:11:26;27.30;99.90
41547;DHT22;27271;45.412;10.852;2023-09-30T15:14:49;27.30;99.90
41547;DHT22;27271;45.412;10.852;2023-09-30T15:18:14;27.40;99.90
41547;DHT22;27271;45.412;10.852;2023-09-30T15:21:36;27.40;99.90
41547;DHT22;27271;45.412;10.852;2023-09-30T15:25:00;27.40;99.90
41547;DHT22;27271;45.412;10.852;2023-09-30T15:28:23;27.30;99.90
41547;DHT22;27271;45.412;10.852;2023-09-30T15:31:46;27.30;99.90
41547;DHT22;27271;45.412;10.852;2023-09-30T15:35:08;27.20;99.90
41547;DHT22;27271;45.412;10.852;2023-09-30T15:38:35;27.20;99.90
41547;DHT22;27271;45.412;10.852;2023-09-30T15:42:02;27.30;99.90
41547;DHT22;27271;45.412;10.852;2023-09-30T15:45:25;27.30;99.90
41547;DHT22;27271;45.412;10.852;2023-09-30T15:48:48;27.30;99.90
41547;DHT22;27271;45.412;10.852;2023-09-30T15:52:11;27.10;99.90
41547;DHT22;27271;45.412;10.852;2023-09-30T15:55:33;27.00;99.90
41547;DHT22;27271;45.412;10.852;2023-09-30T15:58:56;26.90;99.90
41547;DHT22;27271;45.412;10.852;2023-09-30T16:02:19;26.70;99.90
41547;DHT22;27271;45.412;10.852;2023-09-30T16:05:43;26.60;99.90
41547;DHT22;27271;45.412;10.852;2023-09-30T16:09:07;26.40;99.90
41547;DHT22;27271;45.412;10.852;2023-09-30T16:12:31;26.30;99.90
41547;DHT22;27271;45.412;10.852;2023-09-30T16:15:53;26.20;99.90
41547;DHT22;27271;45.412;10.852;2023-09-30T16:19:16;26.10;99.90
41547;DHT22;27271;45.412;10.852;2023-09-30T16:22:38;25.90;99.90
41547;DHT22;27271;45.412;10.852;2023-09-30T16:26:01;25.70;99.90
41547;DHT22;27271;45.412;10.852;2023-09-30T16:29:24;25.60;99.90
41547;DHT22;27271;45.412;10.852;2023-09-30T16:32:47;25.40;99.90
41547;DHT22;27271;45.412;10.852;2023-09-30T16:36:10;25.20;99.90
41547;DHT22;27271;45.412;10.852;2023-09-30T16:39:32;25.00;99.90
41547;DHT22;27271;45.412;10.852;2023-09-30T16:42:58;24.80;99.90
41547;DHT22;27271;45.412;10.852;2023-09-30T16:46:21;24.50;99.90
41547;DHT22;27271;45.412;10.852;2023-09-30T16:49:43;24.30;99.90
41547;DHT22;27271;45.412;10.852;2023-09-30T16:53:10;24.10;99.90
41547;DHT22;27271;45.412;10.852;2023-09-30T16:56:32;23.90;99.90
41547;DHT22;27271;45.412;10.852;2023-09-30T16:59:55;23.70;99.90
41547;DHT22;27271;45.412;10.852;2023-09-30T17:03:20;23.50;99.90
41547;DHT22;27271;45.412;10.852;2023-09-30T17:06:42;23.30;99.90
41547;DHT22;27271;45.412;10.852;2023-09-30T17:10:14;23.10;99.90
41547;DHT22;27271;45.412;10.852;2023-09-30T17:13:37;23.00;99.90
41547;DHT22;27271;45.412;10.852;2023-09-30T17:17:02;22.90;99.90
41547;DHT22;27271;45.412;10.852;2023-09-30T17:20:28;22.70;99.90
41547;DHT22;27271;45.412;10.852;2023-09-30T17:23:51;22.50;99.90
41547;DHT22;27271;45.412;10.852;2023-09-30T17:27:13;22.40;99.90
41547;DHT22;27271;45.412;10.852;2023-09-30T17:30:36;22.20;99.90
41547;DHT22;27271;45.412;10.852;2023-09-30T17:34:06;22.10;99.90
41547;DHT22;27271;45.412;10.852;2023-09-30T17:37:29;22.00;99.90
41547;DHT22;27271;45.412;10.852;2023-09-30T17:40:52;21.90;99.90
41547;DHT22;27271;45.412;10.852;2023-09-30T17:44:15;21.80;99.90
41547;DHT22;27271;45.412;10.852;2023-09-30T17:47:37;21.70;99.90
41547;DHT22;27271;45.412;10.852;2023-09-30T17:51:00;21.60;99.90
41547;DHT22;27271;45.412;10.852;2023-09-30T17:54:22;21.50;99.90
41547;DHT22;27271;45.412;10.852;2023-09-30T17:57:48;21.50;99.90
41547;DHT22;27271;45.412;10.852;2023-09-30T18:01:10;21.40;99.90
41547;DHT22;27271;45.412;10.852;2023-09-30T18:04:32;21.40;99.90
41547;DHT22;27271;45.412;10.852;2023-09-30T18:07:55;21.40;99.90
41547;DHT22;27271;45.412;10.852;2023-09-30T18:11:18;21.40;99.90
41547;DHT22;27271;45.412;10.852;2023-09-30T18:14:41;21.40;99.90
41547;DHT22;27271;45.412;10.852;2023-09-30T18:18:04;21.40;99.90
41547;DHT22;27271;45.412;10.852;2023-09-30T18:21:33;21.40;99.90
41547;DHT22;27271;45.412;10.852;2023-09-30T18:24:56;21.40;99.90
41547;DHT22;27271;45.412;10.852;2023-09-30T18:28:18;21.30;99.90
41547;DHT22;27271;45.412;10.852;2023-09-30T18:31:44;21.30;99.90
41547;DHT22;27271;45.412;10.852;2023-09-30T18:35:07;21.20;99.90
41547;DHT22;27271;45.412;10.852;2023-09-30T18:38:30;21.20;99.90
41547;DHT22;27271;45.412;10.852;2023-09-30T18:41:53;21.20;99.90
41547;DHT22;27271;45.412;10.852;2023-09-30T18:45:15;21.10;99.90
41547;DHT22;27271;45.412;10.852;2023-09-30T18:48:41;21.10;99.90
41547;DHT22;27271;45.412;10.852;2023-09-30T18:52:04;21.10;99.90
41547;DHT22;27271;45.412;10.852;2023-09-30T18:55:29;21.10;1.00
41547;DHT22;27271;45.412;10.852;2023-09-30T18:58:52;21.10;99.90
41547;DHT22;27271;45.412;10.852;2023-09-30T19:02:14;21.00;1.00
41547;DHT22;27271;45.412;10.852;2023-09-30T19:05:38;20.90;1.00
41547;DHT22;27271;45.412;10.852;2023-09-30T19:09:01;20.80;1.00
41547;DHT22;27271;45.412;10.852;2023-09-30T19:12:23;20.90;1.00
41547;DHT22;27271;45.412;10.852;2023-09-30T19:15:45;20.80;1.00
41547;DHT22;27271;45.412;10.852;2023-09-30T19:19:08;20.80;1.00
41547;DHT22;27271;45.412;10.852;2023-09-30T19:22:31;20.60;1.00
41547;DHT22;27271;45.412;10.852;2023-09-30T19:25:53;20.60;1.00
41547;DHT22;27271;45.412;10.852;2023-09-30T19:29:16;20.40;1.00
41547;DHT22;27271;45.412;10.852;2023-09-30T19:32:39;20.30;1.00
41547;DHT22;27271;45.412;10.852;2023-09-30T19:36:06;20.20;1.00
41547;DHT22;27271;45.412;10.852;2023-09-30T19:39:32;20.10;1.00
41547;DHT22;27271;45.412;10.852;2023-09-30T19:42:55;20.00;1.00
41547;DHT22;27271;45.412;10.852;2023-09-30T19:46:17;19.90;1.00
41547;DHT22;27271;45.412;10.852;2023-09-30T19:49:40;19.90;1.00
41547;DHT22;27271;45.412;10.852;2023-09-30T19:53:03;19.80;1.00
41547;DHT22;27271;45.412;10.852;2023-09-30T19:56:26;19.70;1.00
41547;DHT22;27271;45.412;10.852;2023-09-30T19:59:51;19.70;1.00
41547;DHT22;27271;45.412;10.852;2023-09-30T20:03:13;19.70;1.00
41547;DHT22;27271;45.412;10.852;2023-09-30T20:06:36;19.80;1.00
41547;DHT22;27271;45.412;10.852;2023-09-30T20:09:58;19.80;1.00
41547;DHT22;27271;45.412;10.852;2023-09-30T20:13:25;19.70;1.00
41547;DHT22;27271;45.412;10.852;2023-09-30T20:16:51;19.70;1.00
41547;DHT22;27271;45.412;10.852;2023-09-30T20:20:13;19.60;1.00
41547;DHT22;27271;45.412;10.852;2023-09-30T20:23:40;19.60;1.00
41547;DHT22;27271;45.412;10.852;2023-09-30T20:27:03;19.50;1.00
41547;DHT22;27271;45.412;10.852;2023-09-30T20:30:26;19.40;1.00
41547;DHT22;27271;45.412;10.852;2023-09-30T20:33:48;19.30;1.00
41547;DHT22;27271;45.412;10.852;2023-09-30T20:37:11;19.20;1.00
41547;DHT22;27271;45.412;10.852;2023-09-30T20:40:33;19.20;1.00
41547;DHT22;27271;45.412;10.852;2023-09-30T20:43:57;19.20;1.00
41547;DHT22;27271;45.412;10.852;2023-09-30T20:47:19;19.10;1.00
41547;DHT22;27271;45.412;10.852;2023-09-30T20:50:42;19.10;1.00
41547;DHT22;27271;45.412;10.852;2023-09-30T20:54:05;19.10;1.00
41547;DHT22;27271;45.412;10.852;2023-09-30T20:57:29;19.00;1.00
41547;DHT22;27271;45.412;10.852;2023-09-30T21:00:52;19.00;1.00
41547;DHT22;27271;45.412;10.852;2023-09-30T21:04:15;19.00;1.00
41547;DHT22;27271;45.412;10.852;2023-09-30T21:07:38;19.00;1.00
41547;DHT22;27271;45.412;10.852;2023-09-30T21:11:06;18.90;1.00
41547;DHT22;27271;45.412;10.852;2023-09-30T21:14:29;18.90;1.00
41547;DHT22;27271;45.412;10.852;2023-09-30T21:17:51;18.90;1.00
41547;DHT22;27271;45.412;10.852;2023-09-30T21:21:15;18.80;1.00
41547;DHT22;27271;45.412;10.852;2023-09-30T21:24:39;18.70;1.00
41547;DHT22;27271;45.412;10.852;2023-09-30T21:28:06;18.70;1.00
41547;DHT22;27271;45.412;10.852;2023-09-30T21:31:29;18.70;1.00
41547;DHT22;27271;45.412;10.852;2023-09-30T21:34:54;18.60;1.00
41547;DHT22;27271;45.412;10.852;2023-09-30T21:38:23;18.60;1.00
41547;DHT22;27271;45.412;10.852;2023-09-30T21:41:52;18.50;1.00
41547;DHT22;27271;45.412;10.852;2023-09-30T21:45:16;18.50;1.00
41547;DHT22;27271;45.412;10.852;2023-09-30T21:48:40;18.50;1.00
41547;DHT22;27271;45.412;10.852;2023-09-30T21:52:03;18.40;1.00
41547;DHT22;27271;45.412;10.852;2023-09-30T21:55:25;18.40;1.00
41547;DHT22;27271;45.412;10.852;2023-09-30T21:58:50;18.30;1.00
41547;DHT22;27271;45.412;10.852;2023-09-30T22:02:13;18.30;1.00
41547;DHT22;27271;45.412;10.852;2023-09-30T22:05:40;18.20;1.00
41547;DHT22;27271;45.412;10.852;2023-09-30T22:09:03;18.20;1.00
41547;DHT22;27271;45.412;10.852;2023-09-30T22:12:25;18.10;1.00
41547;DHT22;27271;45.412;10.852;2023-09-30T22:15:48;18.10;1.00
41547;DHT22;27271;45.412;10.852;2023-09-30T22:19:11;18.00;1.00
41547;DHT22;27271;45.412;10.852;2023-09-30T22:22:34;18.10;1.00
41547;DHT22;27271;45.412;10.852;2023-09-30T22:25:56;18.00;1.00
41547;DHT22;27271;45.412;10.852;2023-09-30T22:29:19;18.00;1.00
